sensor_id;sensor_type;location;lat;lon;timestamp;temperature;humidity
16674;DHT22;8450;52.654;10.326;2023-04-06T05:38:13;-3.10;99.90
16674;DHT22;8450;52.654;10.326;2023-04-06T05:40:39;-3.10;99.90
16674;DHT22;8450;52.654;10.326;2023-04-06T05:43:09;-3.00;99.90
16674;DHT22;8450;52.654;10.326;2023-04-06T05:45:36;-3.00;99.90
16674;DHT22;8450;52.654;10.326;2023-04-06T05:48:05;-3.00;99.90
16674;DHT22;8450;52.654;10.326;2023-04-06T05:50:31;-2.90;99.90
16674;DHT22;8450;52.654;10.326;2023-04-06T05:52:57;-2.90;99.90
16674;DHT22;8450;52.654;10.326;2023-04-06T05:55:28;-2.80;99.90
16674;DHT22;8450;52.654;10.326;2023-04-06T05:58:06;-2.80;99.90
16674;DHT22;8450;52.654;10.326;2023-04-06T06:00:31;-2.70;99.90
16674;DHT22;8450;52.654;10.326;2023-04-06T06:03:03;-2.70;99.90
16674;DHT22;8450;52.654;10.326;2023-04-06T06:05:34;-2.60;99.90
16674;DHT22;8450;52.654;10.326;2023-04-06T06:08:07;-2.60;99.90
16674;DHT22;8450;52.654;10.326;2023-04-06T06:10:33;-2.50;99.90
16674;DHT22;8450;52.654;10.326;2023-04-06T06:12:59;-2.40;99.90
16674;DHT22;8450;52.654;10.326;2023-04-06T06:15:25;-2.40;99.90
16674;DHT22;8450;52.654;10.326;2023-04-06T06:17:51;-2.30;99.90
16674;DHT22;8450;52.654;10.326;2023-04-06T06:20:17;-2.30;99.90
16674;DHT22;8450;52.654;10.326;2023-04-06T06:22:43;-2.20;99.90
16674;DHT22;8450;52.654;10.326;2023-04-06T06:25:14;-2.10;99.90
16674;DHT22;8450;52.654;10.326;2023-04-06T06:27:41;-2.10;99.90
16674;DHT22;8450;52.654;10.326;2023-04-06T06:30:07;-2.00;99.90
16674;DHT22;8450;52.654;10.326;2023-04-06T06:32:35;-1.90;99.90
16674;DHT22;8450;52.654;10.326;2023-04-06T06:35:00;-1.80;99.90
16674;DHT22;8450;52.654;10.326;2023-04-06T06:37:27;-1.70;99.90
16674;DHT22;8450;52.654;10.326;2023-04-06T06:39:53;-1.70;99.90
16674;DHT22;8450;52.654;10.326;2023-04-06T06:42:20;-1.60;99.90
16674;DHT22;8450;52.654;10.326;2023-04-06T06:44:54;-1.50;99.90
16674;DHT22;8450;52.654;10.326;2023-04-06T06:47:19;-1.40;99.90
16674;DHT22;8450;52.654;10.326;2023-04-06T06:49:45;-1.30;99.90
16674;DHT22;8450;52.654;10.326;2023-04-06T06:52:10;-1.20;99.90
16674;DHT22;8450;52.654;10.326;2023-04-06T06:54:36;-1.10;99.90
16674;DHT22;8450;52.654;10.326;2023-04-06T06:57:02;-1.00;99.90
16674;DHT22;8450;52.654;10.326;2023-04-06T06:59:28;-0.90;99.90
16674;DHT22;8450;52.654;10.326;2023-04-06T07:01:53;-0.70;99.90
16674;DHT22;8450;52.654;10.326;2023-04-06T07:04:19;-0.60;99.90
16674;DHT22;8450;52.654;10.326;2023-04-06T07:06:45;-0.40;99.90
16674;DHT22;8450;52.654;10.326;2023-04-06T07:09:10;-0.20;99.90
16674;DHT22;8450;52.654;10.326;2023-04-06T07:11:36;0.00;99.90
16674;DHT22;8450;52.654;10.326;2023-04-06T07:14:01;0.20;99.90
16674;DHT22;8450;52.654;10.326;2023-04-06T07:16:27;0.40;99.90
16674;DHT22;8450;52.654;10.326;2023-04-06T07:18:54;0.70;99.90
16674;DHT22;8450;52.654;10.326;2023-04-06T07:21:19;0.90;99.90
16674;DHT22;8450;52.654;10.326;2023-04-06T07:23:45;1.20;99.90
16674;DHT22;8450;52.654;10.326;2023-04-06T07:26:13;1.50;99.90
16674;DHT22;8450;52.654;10.326;2023-04-06T07:28:38;1.70;99.90
16674;DHT22;8450;52.654;10.326;2023-04-06T07:31:05;2.00;99.90
16674;DHT22;8450;52.654;10.326;2023-04-06T07:33:31;2.30;99.90
16674;DHT22;8450;52.654;10.326;2023-04-06T07:35:58;2.60;99.90
16674;DHT22;8450;52.654;10.326;2023-04-06T07:38:24;2.80;99.90
16674;DHT22;8450;52.654;10.326;2023-04-06T07:40:51;3.10;99.90
16674;DHT22;8450;52.654;10.326;2023-04-06T07:43:16;3.40;99.90
16674;DHT22;8450;52.654;10.326;2023-04-06T07:45:42;3.70;99.90
16674;DHT22;8450;52.654;10.326;2023-04-06T07:48:08;4.00;99.90
16674;DHT22;8450;52.654;10.326;2023-04-06T07:50:34;4.40;99.90
16674;DHT22;8450;52.654;10.326;2023-04-06T07:53:01;4.70;99.90
16674;DHT22;8450;52.654;10.326;2023-04-06T07:55:28;5.00;99.90
16674;DHT22;8450;52.654;10.326;2023-04-06T07:58:15;5.30;99.90
16674;DHT22;8450;52.654;10.326;2023-04-06T08:00:41;5.60;99.90
16674;DHT22;8450;52.654;10.326;2023-04-06T08:03:06;5.90;99.90
16674;DHT22;8450;52.654;10.326;2023-04-06T08:08:13;6.50;99.90
16674;DHT22;8450;52.654;10.326;2023-04-06T08:10:39;6.80;99.90
16674;DHT22;8450;52.654;10.326;2023-04-06T08:13:04;7.00;99.90
16674;DHT22;8450;52.654;10.326;2023-04-06T08:15:30;7.30;99.90
16674;DHT22;8450;52.654;10.326;2023-04-06T08:17:56;7.60;99.90
16674;DHT22;8450;52.654;10.326;2023-04-06T08:20:22;7.90;99.90
16674;DHT22;8450;52.654;10.326;2023-04-06T08:22:48;8.10;99.90
16674;DHT22;8450;52.654;10.326;2023-04-06T08:25:13;8.40;99.90
16674;DHT22;8450;52.654;10.326;2023-04-06T08:27:39;8.70;99.90
16674;DHT22;8450;52.654;10.326;2023-04-06T08:30:05;9.00;99.90
16674;DHT22;8450;52.654;10.326;2023-04-06T08:32:30;9.20;99.90
16674;DHT22;8450;52.654;10.326;2023-04-06T08:34:56;9.50;99.90
16674;DHT22;8450;52.654;10.326;2023-04-06T08:37:22;9.70;99.90
16674;DHT22;8450;52.654;10.326;2023-04-06T08:39:47;10.00;99.90
16674;DHT22;8450;52.654;10.326;2023-04-06T08:42:21;10.20;99.90
16674;DHT22;8450;52.654;10.326;2023-04-06T08:50:14;11.00;99.90
16674;DHT22;8450;52.654;10.326;2023-04-06T08:52:43;11.20;99.90
16674;DHT22;8450;52.654;10.326;2023-04-06T08:55:09;11.40;99.90
16674;DHT22;8450;52.654;10.326;2023-04-06T08:57:36;11.60;99.90
16674;DHT22;8450;52.654;10.326;2023-04-06T09:00:01;11.80;99.90
16674;DHT22;8450;52.654;10.326;2023-04-06T09:02:27;12.00;99.90
16674;DHT22;8450;52.654;10.326;2023-04-06T09:04:53;12.10;99.90
16674;DHT22;8450;52.654;10.326;2023-04-06T09:07:20;12.30;99.90
16674;DHT22;8450;52.654;10.326;2023-04-06T09:09:45;12.50;99.90
16674;DHT22;8450;52.654;10.326;2023-04-06T09:12:29;12.70;99.90
16674;DHT22;8450;52.654;10.326;2023-04-06T09:14:56;12.90;99.90
16674;DHT22;8450;52.654;10.326;2023-04-06T09:17:30;13.10;99.90
16674;DHT22;8450;52.654;10.326;2023-04-06T09:19:58;13.20;99.90
16674;DHT22;8450;52.654;10.326;2023-04-06T09:22:23;13.40;99.90
16674;DHT22;8450;52.654;10.326;2023-04-06T09:28:19;13.70;99.90
16674;DHT22;8450;52.654;10.326;2023-04-06T09:30:48;13.90;99.90
16674;DHT22;8450;52.654;10.326;2023-04-06T09:38:30;14.40;99.90
16674;DHT22;8450;52.654;10.326;2023-04-06T09:40:56;14.60;99.90
16674;DHT22;8450;52.654;10.326;2023-04-06T09:52:03;15.20;99.90
16674;DHT22;8450;52.654;10.326;2023-04-06T09:59:58;15.70;99.90
16674;DHT22;8450;52.654;10.326;2023-04-06T10:02:44;15.70;99.90
16674;DHT22;8450;52.654;10.326;2023-04-06T10:05:29;15.80;99.90
16674;DHT22;8450;52.654;10.326;2023-04-06T10:07:59;15.90;99.90
16674;DHT22;8450;52.654;10.326;2023-04-06T10:10:28;16.00;99.90
16674;DHT22;8450;52.654;10.326;2023-04-06T10:12:54;16.10;99.90
16674;DHT22;8450;52.654;10.326;2023-04-06T10:15:21;16.20;99.90
16674;DHT22;8450;52.654;10.326;2023-04-06T10:17:47;16.30;99.90
16674;DHT22;8450;52.654;10.326;2023-04-06T10:20:16;16.50;99.90
16674;DHT22;8450;52.654;10.326;2023-04-06T10:23:09;16.60;99.90
16674;DHT22;8450;52.654;10.326;2023-04-06T10:25:35;16.70;99.90
16674;DHT22;8450;52.654;10.326;2023-04-06T10:28:07;16.80;99.90
16674;DHT22;8450;52.654;10.326;2023-04-06T10:30:34;16.90;99.90
16674;DHT22;8450;52.654;10.326;2023-04-06T10:33:00;17.00;99.90
16674;DHT22;8450;52.654;10.326;2023-04-06T10:38:08;17.10;99.90
16674;DHT22;8450;52.654;10.326;2023-04-06T10:40:38;17.20;99.90
16674;DHT22;8450;52.654;10.326;2023-04-06T10:45:55;17.40;99.90
16674;DHT22;8450;52.654;10.326;2023-04-06T10:48:21;17.50;99.90
16674;DHT22;8450;52.654;10.326;2023-04-06T10:50:51;17.70;99.90
16674;DHT22;8450;52.654;10.326;2023-04-06T10:55:59;17.80;99.90
16674;DHT22;8450;52.654;10.326;2023-04-06T10:58:28;18.00;99.90
16674;DHT22;8450;52.654;10.326;2023-04-06T11:00:54;18.10;99.90
16674;DHT22;8450;52.654;10.326;2023-04-06T11:03:21;18.20;99.90
16674;DHT22;8450;52.654;10.326;2023-04-06T11:05:51;18.30;99.90
16674;DHT22;8450;52.654;10.326;2023-04-06T11:08:27;18.40;99.90
16674;DHT22;8450;52.654;10.326;2023-04-06T11:11:04;18.40;99.90
16674;DHT22;8450;52.654;10.326;2023-04-06T11:13:41;18.50;99.90
16674;DHT22;8450;52.654;10.326;2023-04-06T11:16:11;18.50;99.90
16674;DHT22;8450;52.654;10.326;2023-04-06T11:18:37;18.60;99.90
16674;DHT22;8450;52.654;10.326;2023-04-06T11:21:03;18.60;99.90
16674;DHT22;8450;52.654;10.326;2023-04-06T11:29:59;18.60;99.90
16674;DHT22;8450;52.654;10.326;2023-04-06T11:32:25;18.50;99.90
16674;DHT22;8450;52.654;10.326;2023-04-06T11:39:05;18.50;99.90
16674;DHT22;8450;52.654;10.326;2023-04-06T11:41:40;18.60;99.90
16674;DHT22;8450;52.654;10.326;2023-04-06T11:44:06;18.50;99.90
16674;DHT22;8450;52.654;10.326;2023-04-06T11:46:32;18.50;99.90
16674;DHT22;8450;52.654;10.326;2023-04-06T11:48:59;18.50;99.90
16674;DHT22;8450;52.654;10.326;2023-04-06T11:51:26;18.60;99.90
16674;DHT22;8450;52.654;10.326;2023-04-06T11:53:52;18.60;99.90
16674;DHT22;8450;52.654;10.326;2023-04-06T11:56:28;18.70;99.90
16674;DHT22;8450;52.654;10.326;2023-04-06T11:58:55;18.70;99.90
16674;DHT22;8450;52.654;10.326;2023-04-06T12:01:21;18.60;99.90
16674;DHT22;8450;52.654;10.326;2023-04-06T12:03:47;18.70;99.90
16674;DHT22;8450;52.654;10.326;2023-04-06T12:06:13;18.70;99.90
16674;DHT22;8450;52.654;10.326;2023-04-06T12:08:39;18.70;99.90
16674;DHT22;8450;52.654;10.326;2023-04-06T12:11:05;18.70;99.90
16674;DHT22;8450;52.654;10.326;2023-04-06T12:13:30;18.70;99.90
16674;DHT22;8450;52.654;10.326;2023-04-06T12:15:56;18.70;99.90
16674;DHT22;8450;52.654;10.326;2023-04-06T12:18:21;18.60;99.90
16674;DHT22;8450;52.654;10.326;2023-04-06T12:20:47;18.70;99.90
16674;DHT22;8450;52.654;10.326;2023-04-06T12:23:12;18.70;99.90
16674;DHT22;8450;52.654;10.326;2023-04-06T12:25:39;18.70;99.90
16674;DHT22;8450;52.654;10.326;2023-04-06T12:28:06;18.80;99.90
16674;DHT22;8450;52.654;10.326;2023-04-06T12:30:31;18.80;99.90
16674;DHT22;8450;52.654;10.326;2023-04-06T12:32:57;18.80;99.90
16674;DHT22;8450;52.654;10.326;2023-04-06T12:35:23;18.80;99.90
16674;DHT22;8450;52.654;10.326;2023-04-06T12:37:48;18.70;99.90
16674;DHT22;8450;52.654;10.326;2023-04-06T12:40:14;18.70;99.90
16674;DHT22;8450;52.654;10.326;2023-04-06T12:42:40;18.70;99.90
16674;DHT22;8450;52.654;10.326;2023-04-06T12:45:10;18.60;99.90
16674;DHT22;8450;52.654;10.326;2023-04-06T12:47:36;18.60;99.90
16674;DHT22;8450;52.654;10.326;2023-04-06T12:50:02;18.60;99.30
16674;DHT22;8450;52.654;10.326;2023-04-06T12:52:27;18.50;99.70
16674;DHT22;8450;52.654;10.326;2023-04-06T12:54:56;18.50;99.70
16674;DHT22;8450;52.654;10.326;2023-04-06T12:58:14;18.40;99.70
16674;DHT22;8450;52.654;10.326;2023-04-06T13:03:58;18.30;99.50
16674;DHT22;8450;52.654;10.326;2023-04-06T13:06:24;18.30;99.90
16674;DHT22;8450;52.654;10.326;2023-04-06T13:08:54;18.30;99.80
16674;DHT22;8450;52.654;10.326;2023-04-06T13:11:20;18.30;99.60
16674;DHT22;8450;52.654;10.326;2023-04-06T13:13:49;18.30;99.80
16674;DHT22;8450;52.654;10.326;2023-04-06T13:16:15;18.30;99.90
16674;DHT22;8450;52.654;10.326;2023-04-06T13:18:40;18.30;99.90
16674;DHT22;8450;52.654;10.326;2023-04-06T13:21:07;18.30;99.60
16674;DHT22;8450;52.654;10.326;2023-04-06T13:23:33;18.30;99.90
16674;DHT22;8450;52.654;10.326;2023-04-06T13:26:04;18.20;99.60
16674;DHT22;8450;52.654;10.326;2023-04-06T13:28:30;18.20;99.90
16674;DHT22;8450;52.654;10.326;2023-04-06T13:30:58;18.20;99.90
16674;DHT22;8450;52.654;10.326;2023-04-06T13:40:20;18.30;99.90
16674;DHT22;8450;52.654;10.326;2023-04-06T13:42:46;18.40;99.90
16674;DHT22;8450;52.654;10.326;2023-04-06T13:45:12;18.40;99.90
16674;DHT22;8450;52.654;10.326;2023-04-06T13:47:38;18.50;99.90
16674;DHT22;8450;52.654;10.326;2023-04-06T13:50:04;18.50;99.90
16674;DHT22;8450;52.654;10.326;2023-04-06T13:52:30;18.50;99.90
16674;DHT22;8450;52.654;10.326;2023-04-06T13:54:55;18.60;99.90
16674;DHT22;8450;52.654;10.326;2023-04-06T13:57:21;18.60;99.90
16674;DHT22;8450;52.654;10.326;2023-04-06T13:59:46;18.60;99.80
16674;DHT22;8450;52.654;10.326;2023-04-06T14:02:12;18.50;99.90
16674;DHT22;8450;52.654;10.326;2023-04-06T14:04:38;18.50;99.90
16674;DHT22;8450;52.654;10.326;2023-04-06T14:07:04;18.50;99.90
16674;DHT22;8450;52.654;10.326;2023-04-06T14:09:32;18.50;99.90
16674;DHT22;8450;52.654;10.326;2023-04-06T14:11:58;18.40;99.80
16674;DHT22;8450;52.654;10.326;2023-04-06T14:14:33;18.40;99.90
16674;DHT22;8450;52.654;10.326;2023-04-06T14:16:58;18.40;99.90
16674;DHT22;8450;52.654;10.326;2023-04-06T14:19:24;18.30;99.90
16674;DHT22;8450;52.654;10.326;2023-04-06T14:21:49;18.30;99.90
16674;DHT22;8450;52.654;10.326;2023-04-06T14:24:17;18.30;99.90
16674;DHT22;8450;52.654;10.326;2023-04-06T14:26:43;18.30;99.50
16674;DHT22;8450;52.654;10.326;2023-04-06T14:29:09;18.30;99.00
16674;DHT22;8450;52.654;10.326;2023-04-06T14:31:35;18.30;99.60
16674;DHT22;8450;52.654;10.326;2023-04-06T14:34:02;18.20;98.90
16674;DHT22;8450;52.654;10.326;2023-04-06T14:36:29;18.20;99.60
16674;DHT22;8450;52.654;10.326;2023-04-06T14:39:02;18.20;99.90
16674;DHT22;8450;52.654;10.326;2023-04-06T14:41:27;18.20;99.90
16674;DHT22;8450;52.654;10.326;2023-04-06T14:46:33;18.10;99.90
16674;DHT22;8450;52.654;10.326;2023-04-06T14:48:59;18.10;99.90
16674;DHT22;8450;52.654;10.326;2023-04-06T14:51:25;18.10;99.90
16674;DHT22;8450;52.654;10.326;2023-04-06T14:53:52;18.00;99.90
16674;DHT22;8450;52.654;10.326;2023-04-06T14:56:22;18.00;99.90
16674;DHT22;8450;52.654;10.326;2023-04-06T14:58:48;17.90;99.20
16674;DHT22;8450;52.654;10.326;2023-04-06T15:01:16;17.80;99.40
16674;DHT22;8450;52.654;10.326;2023-04-06T15:03:42;17.80;98.90
16674;DHT22;8450;52.654;10.326;2023-04-06T15:06:12;17.70;99.00
16674;DHT22;8450;52.654;10.326;2023-04-06T15:08:42;17.60;99.00
16674;DHT22;8450;52.654;10.326;2023-04-06T15:11:08;17.50;99.40
16674;DHT22;8450;52.654;10.326;2023-04-06T15:16:08;17.40;99.90
16674;DHT22;8450;52.654;10.326;2023-04-06T15:18:34;17.40;99.90
16674;DHT22;8450;52.654;10.326;2023-04-06T15:21:01;17.30;98.90
16674;DHT22;8450;52.654;10.326;2023-04-06T15:23:26;17.20;99.60
16674;DHT22;8450;52.654;10.326;2023-04-06T15:25:55;17.10;98.90
16674;DHT22;8450;52.654;10.326;2023-04-06T15:28:20;17.10;99.80
16674;DHT22;8450;52.654;10.326;2023-04-06T15:30:46;17.00;99.90
16674;DHT22;8450;52.654;10.326;2023-04-06T15:33:11;17.00;99.90
16674;DHT22;8450;52.654;10.326;2023-04-06T15:35:37;17.00;99.70
16674;DHT22;8450;52.654;10.326;2023-04-06T15:38:05;16.90;99.50
16674;DHT22;8450;52.654;10.326;2023-04-06T15:40:32;16.90;99.90
16674;DHT22;8450;52.654;10.326;2023-04-06T15:42:58;16.80;99.90
16674;DHT22;8450;52.654;10.326;2023-04-06T15:45:24;16.80;99.90
16674;DHT22;8450;52.654;10.326;2023-04-06T15:47:50;16.80;99.90
16674;DHT22;8450;52.654;10.326;2023-04-06T15:50:15;16.70;99.90
16674;DHT22;8450;52.654;10.326;2023-04-06T15:52:41;16.60;99.70
16674;DHT22;8450;52.654;10.326;2023-04-06T15:55:07;16.60;99.90
16674;DHT22;8450;52.654;10.326;2023-04-06T15:57:33;16.50;99.80
16674;DHT22;8450;52.654;10.326;2023-04-06T16:00:00;16.50;99.50
16674;DHT22;8450;52.654;10.326;2023-04-06T16:02:26;16.40;99.80
16674;DHT22;8450;52.654;10.326;2023-04-06T16:04:55;16.40;99.90
16674;DHT22;8450;52.654;10.326;2023-04-06T16:07:21;16.30;99.00
16674;DHT22;8450;52.654;10.326;2023-04-06T16:09:47;16.20;98.70
16674;DHT22;8450;52.654;10.326;2023-04-06T16:12:13;16.20;99.40
16674;DHT22;8450;52.654;10.326;2023-04-06T16:14:38;16.10;99.40
16674;DHT22;8450;52.654;10.326;2023-04-06T16:17:04;16.10;99.90
16674;DHT22;8450;52.654;10.326;2023-04-06T16:19:30;16.00;99.70
16674;DHT22;8450;52.654;10.326;2023-04-06T16:21:55;15.90;99.00
16674;DHT22;8450;52.654;10.326;2023-04-06T16:24:22;15.90;99.90
16674;DHT22;8450;52.654;10.326;2023-04-06T16:26:47;15.80;99.90
16674;DHT22;8450;52.654;10.326;2023-04-06T16:29:13;15.80;99.90
16674;DHT22;8450;52.654;10.326;2023-04-06T16:31:41;15.70;99.80
16674;DHT22;8450;52.654;10.326;2023-04-06T16:34:08;15.60;99.90
16674;DHT22;8450;52.654;10.326;2023-04-06T16:36:33;15.50;99.90
16674;DHT22;8450;52.654;10.326;2023-04-06T16:39:00;15.50;99.90
16674;DHT22;8450;52.654;10.326;2023-04-06T16:41:27;15.40;99.90
16674;DHT22;8450;52.654;10.326;2023-04-06T16:43:53;15.30;99.80
16674;DHT22;8450;52.654;10.326;2023-04-06T16:46:21;15.20;99.90
16674;DHT22;8450;52.654;10.326;2023-04-06T16:48:47;15.10;99.80
16674;DHT22;8450;52.654;10.326;2023-04-06T16:51:13;15.00;99.90
16674;DHT22;8450;52.654;10.326;2023-04-06T16:53:40;14.90;99.90
16674;DHT22;8450;52.654;10.326;2023-04-06T16:56:06;14.80;99.90
16674;DHT22;8450;52.654;10.326;2023-04-06T16:58:33;14.70;99.90
16674;DHT22;8450;52.654;10.326;2023-04-06T17:00:59;14.60;99.90
16674;DHT22;8450;52.654;10.326;2023-04-06T17:03:27;14.50;99.90
16674;DHT22;8450;52.654;10.326;2023-04-06T17:05:53;14.40;99.90
16674;DHT22;8450;52.654;10.326;2023-04-06T17:08:19;14.30;99.90
16674;DHT22;8450;52.654;10.326;2023-04-06T17:10:44;14.20;99.90
16674;DHT22;8450;52.654;10.326;2023-04-06T17:13:10;14.10;99.90
16674;DHT22;8450;52.654;10.326;2023-04-06T17:15:36;14.00;99.90
16674;DHT22;8450;52.654;10.326;2023-04-06T17:18:02;13.90;99.90
